Sligo Airport - TAF
(Terminal Area Forecast)

Issued at 20:51 UTC on Sat. 23-Feb-19

--- METARS(SA) ---

METAR EISG(SLIGO) 232000Z AUTO VRB03KT CAVOK 08/06 Q1029 =

--- TAFS() ---

TAF EISG(SLIGO) 232000Z 2321/2406 VRB03KT 9999 SCT025 BECMG

2400/2403 15010KT TEMPO 2400/2406 5000 BR PROB30 TEMPO 2402/2406 3000 BKN007 =

--- SIGMETS(WS) ---

IE - No VALID SIGMETS/Warnings FOR THIS AREA

--- SIGMETS Volcanic(WV) ---

IE - No VALID SIGMETS/Warnings FOR THIS AREA

--- SIGMETS(WS) ---

UK - No VALID SIGMETS/Warnings FOR THIS AREA

Sligo Airport - METARs

Latest METARs for Sligo and Donegal Airports - updated every 30 mins